Time;durP1;ratioP1;P1;durP2;ratioP2;P2;SDS_P1;SDS_P2;PMS_P1;PMS_P2;Temp;Humidity;BMP_temperature;BMP_pressure;BME280_temperature;BME280_humidity;BME280_pressure;Samples;Min_cycle;Max_cycle;Signal;HPM_P1;HPM_P2
2023/08/28 00:00:47;;;;;;;3.90;3.13;;;17.20;98.50;;;;;;5096806;28;20349;-82
2023/08/28 00:03:12;;;;;;;4.45;2.80;;;17.10;98.50;;;;;;5096208;28;20099;-82
2023/08/28 00:05:38;;;;;;;3.38;2.63;;;17.10;98.60;;;;;;5077978;28;20423;-82
2023/08/28 00:08:05;;;;;;;3.17;2.88;;;17.10;98.70;;;;;;5094623;28;20040;-82
2023/08/28 00:10:31;;;;;;;5.45;3.10;;;17.10;98.80;;;;;;5094900;28;20065;-82
2023/08/28 00:12:57;;;;;;;2.72;1.83;;;17.10;98.80;;;;;;5077896;28;20024;-83
2023/08/28 00:15:22;;;;;;;5.82;2.88;;;17.10;98.90;;;;;;5095768;28;20523;-82
2023/08/28 00:17:48;;;;;;;4.43;2.00;;;17.00;99.00;;;;;;5094227;28;20042;-82
2023/08/28 00:20:16;;;;;;;4.60;2.78;;;17.00;99.20;;;;;;5095874;28;20034;-83
2023/08/28 00:22:42;;;;;;;5.70;2.58;;;17.10;99.20;;;;;;5096150;28;20029;-83
2023/08/28 00:25:08;;;;;;;1.40;1.30;;;17.00;99.10;;;;;;5077624;28;20077;-82
2023/08/28 00:27:34;;;;;;;2.58;1.15;;;17.10;99.20;;;;;;5095186;28;20082;-82
2023/08/28 00:30:00;;;;;;;2.15;1.30;;;17.10;99.40;;;;;;5094761;28;20035;-82
2023/08/28 00:32:26;;;;;;;3.25;2.20;;;17.10;99.60;;;;;;5095420;28;20107;-82
2023/08/28 00:34:53;;;;;;;3.55;2.45;;;17.20;99.40;;;;;;5095676;28;20060;-83
2023/08/28 00:37:18;;;;;;;3.72;2.60;;;17.20;99.20;;;;;;5095595;28;20028;-83
2023/08/28 00:39:44;;;;;;;4.40;2.50;;;17.10;99.00;;;;;;5094344;28;20107;-83
2023/08/28 00:42:10;;;;;;;2.58;1.33;;;17.00;99.00;;;;;;5094009;28;20039;-83
2023/08/28 00:44:35;;;;;;;2.42;2.05;;;17.10;99.10;;;;;;5077819;28;20024;-83
2023/08/28 00:47:02;;;;;;;3.15;1.60;;;17.00;99.40;;;;;;5095355;28;20429;-82
2023/08/28 00:49:29;;;;;;;3.35;2.05;;;17.00;99.50;;;;;;5095242;28;20032;-83
2023/08/28 00:51:56;;;;;;;1.38;1.10;;;17.10;99.70;;;;;;5094470;28;20035;-82
2023/08/28 00:54:22;;;;;;;2.97;1.27;;;17.10;99.80;;;;;;5094321;28;20040;-83
2023/08/28 00:56:48;;;;;;;3.83;1.25;;;17.10;99.90;;;;;;5093642;28;20032;-83
2023/08/28 00:59:15;;;;;;;1.60;0.90;;;17.20;99.90;;;;;;5095149;28;20032;-83
2023/08/28 01:01:41;;;;;;;0.98;0.60;;;17.30;99.90;;;;;;5093707;28;20032;-84
2023/08/28 01:04:07;;;;;;;3.20;0.98;;;17.40;99.90;;;;;;5095042;28;20024;-84
2023/08/28 01:06:48;;;;;;;3.55;1.73;;;17.60;99.90;;;;;;5095081;28;20069;-83
2023/08/28 01:09:22;;;;;;;2.50;1.20;;;17.60;99.90;;;;;;5094288;28;20086;-82
2023/08/28 01:11:58;;;;;;;1.98;1.00;;;17.70;99.90;;;;;;5094635;28;20460;-82
2023/08/28 01:14:28;;;;;;;1.95;1.40;;;17.70;99.90;;;;;;5094879;28;20032;-82
2023/08/28 01:16:57;;;;;;;2.70;2.03;;;17.70;99.70;;;;;;5076738;28;20130;-82
2023/08/28 01:19:35;;;;;;;3.38;1.33;;;17.70;99.20;;;;;;5094567;28;20116;-82
2023/08/28 01:22:38;;;;;;;3.95;1.20;;;17.60;99.00;;;;;;5094336;28;20020;-82
2023/08/28 01:25:12;;;;;;;2.25;1.10;;;17.60;99.40;;;;;;5094530;28;20032;-82
2023/08/28 01:27:41;;;;;;;1.70;0.98;;;17.60;99.90;;;;;;5092502;28;20472;-81
2023/08/28 01:30:08;;;;;;;1.27;0.50;;;17.70;99.90;;;;;;5093895;28;20032;-82
2023/08/28 01:32:34;;;;;;;2.08;0.70;;;17.80;99.90;;;;;;5094300;28;20055;-82
2023/08/28 01:35:02;;;;;;;2.33;0.80;;;17.80;99.90;;;;;;5076152;28;20492;-82
2023/08/28 01:37:34;;;;;;;0.80;0.80;;;17.80;99.70;;;;;;5092983;28;20551;-83
2023/08/28 01:40:05;;;;;;;2.47;0.50;;;17.80;99.70;;;;;;5093144;28;20031;-82
2023/08/28 01:42:33;;;;;;;2.95;0.73;;;17.90;99.90;;;;;;5093188;28;20063;-83
2023/08/28 01:45:00;;;;;;;1.55;0.50;;;17.90;99.20;;;;;;5093223;28;20032;-82
2023/08/28 01:47:27;;;;;;;5.15;1.48;;;17.90;99.40;;;;;;5093816;28;20108;-83
2023/08/28 01:49:55;;;;;;;3.35;1.67;;;17.90;99.10;;;;;;5092939;28;20082;-83
2023/08/28 01:52:21;;;;;;;1.50;1.10;;;17.90;98.20;;;;;;5093001;28;20039;-82
2023/08/28 01:54:47;;;;;;;3.80;1.80;;;17.80;98.10;;;;;;5075950;28;20024;-83
2023/08/28 01:57:13;;;;;;;3.28;1.48;;;17.70;98.10;;;;;;5092508;28;20510;-83
2023/08/28 01:59:39;;;;;;;0.98;0.80;;;17.60;98.00;;;;;;5093057;28;20039;-82
2023/08/28 02:02:04;;;;;;;2.47;0.95;;;17.50;98.30;;;;;;5092153;28;20028;-83
2023/08/28 02:04:30;;;;;;;1.85;1.35;;;17.50;98.70;;;;;;5093899;28;20028;-83
2023/08/28 02:06:55;;;;;;;1.67;0.50;;;17.50;99.00;;;;;;5075678;28;20039;-83
2023/08/28 02:09:21;;;;;;;1.70;0.57;;;17.50;99.40;;;;;;5092520;28;20145;-83
2023/08/28 02:11:47;;;;;;;1.02;0.50;;;17.60;99.70;;;;;;5093616;28;20028;-83
2023/08/28 02:14:12;;;;;;;1.20;0.65;;;17.60;99.90;;;;;;5094061;28;20081;-83
2023/08/28 02:16:38;;;;;;;1.83;0.60;;;17.70;99.90;;;;;;5092695;28;20032;-82
2023/08/28 02:19:05;;;;;;;1.67;0.50;;;17.90;99.90;;;;;;5092129;28;20044;-83
2023/08/28 02:21:30;;;;;;;0.70;0.40;;;17.90;99.90;;;;;;5076021;28;20039;-83
2023/08/28 02:23:56;;;;;;;1.20;0.60;;;18.00;99.90;;;;;;5092756;28;20032;-83
2023/08/28 02:26:22;;;;;;;3.47;1.00;;;18.00;99.90;;;;;;5093704;28;20461;-83
2023/08/28 02:28:47;;;;;;;1.33;0.70;;;18.00;99.90;;;;;;5093764;28;20392;-84
2023/08/28 02:31:13;;;;;;;2.55;0.98;;;18.10;99.70;;;;;;5093444;28;20373;-83
2023/08/28 02:33:39;;;;;;;2.28;0.65;;;18.00;99.30;;;;;;5092782;28;20040;-83
2023/08/28 02:36:04;;;;;;;0.93;0.55;;;18.00;99.50;;;;;;5091780;28;20115;-83
2023/08/28 02:38:30;;;;;;;1.77;0.65;;;18.00;99.60;;;;;;5092660;28;20036;-83
2023/08/28 02:41:05;;;;;;;1.48;0.52;;;18.10;99.70;;;;;;5092070;28;20491;-82
2023/08/28 02:43:31;;;;;;;1.35;0.80;;;18.10;99.70;;;;;;5093679;28;20102;-82
2023/08/28 02:45:57;;;;;;;1.70;0.63;;;18.20;99.70;;;;;;5093283;28;20497;-83
2023/08/28 02:48:22;;;;;;;1.40;0.70;;;18.20;99.60;;;;;;5092323;28;20105;-83
2023/08/28 02:50:49;;;;;;;0.90;0.40;;;18.40;99.60;;;;;;5075981;28;20049;-83
2023/08/28 02:53:15;;;;;;;1.15;0.55;;;18.40;99.60;;;;;;5093239;28;20025;-82
2023/08/28 02:55:41;;;;;;;1.35;0.70;;;18.40;99.60;;;;;;5092480;28;20071;-83
2023/08/28 02:58:08;;;;;;;2.03;0.50;;;18.50;99.50;;;;;;5093825;28;20043;-82
2023/08/28 03:00:37;;;;;;;1.58;0.55;;;18.50;99.30;;;;;;5092478;28;20028;-82
2023/08/28 03:03:03;;;;;;;1.52;0.90;;;18.50;98.90;;;;;;5093212;28;20045;-81
2023/08/28 03:05:29;;;;;;;1.23;0.50;;;18.40;98.80;;;;;;5092005;28;20035;-81
2023/08/28 03:07:55;;;;;;;1.20;0.40;;;18.40;98.80;;;;;;5091689;28;20032;-82
2023/08/28 03:10:21;;;;;;;0.70;0.43;;;18.40;98.80;;;;;;5091943;28;20024;-82
2023/08/28 03:12:46;;;;;;;1.80;0.70;;;18.40;98.90;;;;;;5091893;28;20024;-82
2023/08/28 03:15:12;;;;;;;1.08;0.40;;;18.50;98.90;;;;;;5092783;28;20042;-82
2023/08/28 03:17:38;;;;;;;0.63;0.32;;;18.50;99.00;;;;;;5091902;28;20380;-82
2023/08/28 03:20:04;;;;;;;2.50;0.70;;;18.50;98.90;;;;;;5092682;28;20116;-82
2023/08/28 03:22:29;;;;;;;1.30;0.60;;;18.50;98.90;;;;;;5091594;28;20032;-82
2023/08/28 03:24:55;;;;;;;2.75;0.68;;;18.50;98.80;;;;;;5091652;28;20380;-82
2023/08/28 03:27:21;;;;;;;1.25;0.40;;;18.60;98.90;;;;;;5074826;28;20484;-83
2023/08/28 03:29:47;;;;;;;1.48;0.65;;;18.60;98.90;;;;;;5092699;28;20480;-82
2023/08/28 03:32:13;;;;;;;1.17;0.30;;;18.60;98.90;;;;;;5091739;28;20107;-82
2023/08/28 03:34:38;;;;;;;1.52;0.40;;;18.60;98.90;;;;;;5092950;28;20108;-81
2023/08/28 03:37:04;;;;;;;3.35;1.30;;;18.60;98.80;;;;;;5091358;28;20032;-82
2023/08/28 03:39:30;;;;;;;0.95;0.60;;;18.60;98.70;;;;;;5092970;28;20464;-82
2023/08/28 03:41:55;;;;;;;2.67;0.70;;;18.60;98.60;;;;;;5092585;28;20052;-82
2023/08/28 03:44:22;;;;;;;0.85;0.60;;;18.60;98.70;;;;;;5093005;28;20111;-82
2023/08/28 03:46:48;;;;;;;3.05;1.55;;;18.50;98.50;;;;;;5095136;28;20021;-82
2023/08/28 03:49:13;;;;;;;4.85;1.67;;;18.50;98.50;;;;;;5094856;28;20043;-82
2023/08/28 03:51:39;;;;;;;1.10;0.75;;;18.50;98.00;;;;;;5095345;28;20039;-82
2023/08/28 03:54:13;;;;;;;1.00;0.38;;;18.40;98.10;;;;;;5096099;28;20452;-82
2023/08/28 03:56:39;;;;;;;2.13;0.60;;;18.40;98.30;;;;;;5096173;28;20080;-82
2023/08/28 03:59:06;;;;;;;0.90;0.40;;;18.30;98.50;;;;;;5095209;28;20115;-82
2023/08/28 04:01:31;;;;;;;2.50;0.60;;;18.30;98.70;;;;;;5094643;28;20051;-83
2023/08/28 04:03:57;;;;;;;1.70;0.77;;;18.30;98.70;;;;;;5094586;28;20457;-84
2023/08/28 04:06:22;;;;;;;5.68;0.93;;;18.30;98.70;;;;;;5094387;28;20024;-83
2023/08/28 04:08:48;;;;;;;2.30;0.88;;;18.30;98.30;;;;;;5094916;28;20039;-83
2023/08/28 04:11:14;;;;;;;2.67;1.30;;;18.30;98.40;;;;;;5094743;28;20040;-82
2023/08/28 04:13:41;;;;;;;2.97;0.82;;;18.30;98.60;;;;;;5078141;28;20043;-83
2023/08/28 04:16:07;;;;;;;1.95;0.80;;;18.30;98.60;;;;;;5095601;28;20380;-83
2023/08/28 04:18:33;;;;;;;3.08;1.88;;;18.30;98.70;;;;;;5095542;28;20028;-82
2023/08/28 04:20:58;;;;;;;1.80;0.98;;;18.30;98.70;;;;;;5094786;28;20028;-83
2023/08/28 04:23:24;;;;;;;2.00;1.00;;;18.20;98.50;;;;;;5094028;28;20032;-83
2023/08/28 04:25:49;;;;;;;2.13;0.60;;;18.20;98.60;;;;;;5095717;28;20420;-83
2023/08/28 04:28:16;;;;;;;2.70;0.50;;;18.20;98.80;;;;;;5076883;28;20055;-83
2023/08/28 04:30:42;;;;;;;1.08;0.70;;;18.30;98.90;;;;;;5077365;28;20123;-83
2023/08/28 04:33:07;;;;;;;2.38;1.17;;;18.30;99.00;;;;;;5077424;28;20066;-84
2023/08/28 04:35:33;;;;;;;2.33;1.83;;;18.30;99.00;;;;;;5094033;28;20028;-82
2023/08/28 04:37:59;;;;;;;0.82;0.60;;;18.40;99.00;;;;;;5095078;28;20058;-84
2023/08/28 04:40:24;;;;;;;1.42;0.77;;;18.40;98.70;;;;;;5094962;28;20028;-83
2023/08/28 04:42:50;;;;;;;2.20;1.17;;;18.30;98.60;;;;;;5095529;28;20124;-82
2023/08/28 04:45:16;;;;;;;2.78;1.55;;;18.30;98.20;;;;;;5094125;28;20429;-84
2023/08/28 04:47:41;;;;;;;2.75;1.25;;;18.20;98.40;;;;;;5095117;28;20035;-84
2023/08/28 04:50:07;;;;;;;1.48;0.90;;;18.20;98.60;;;;;;5095022;28;20031;-83
2023/08/28 04:52:33;;;;;;;2.47;1.00;;;18.20;98.80;;;;;;5094700;28;20067;-84
2023/08/28 04:54:59;;;;;;;2.67;1.60;;;18.20;98.90;;;;;;5093695;28;20051;-83
2023/08/28 04:57:24;;;;;;;3.47;1.48;;;18.20;98.80;;;;;;5093421;28;20153;-84
2023/08/28 04:59:50;;;;;;;4.25;1.52;;;18.20;99.00;;;;;;5095269;28;20039;-83
2023/08/28 05:02:16;;;;;;;4.47;3.35;;;18.20;98.70;;;;;;5095124;28;20131;-82
2023/08/28 05:04:41;;;;;;;4.78;3.22;;;18.20;98.20;;;;;;5094427;28;20117;-82
2023/08/28 05:07:07;;;;;;;4.75;1.67;;;18.10;97.60;;;;;;5094641;28;20035;-82
2023/08/28 05:09:33;;;;;;;4.50;2.45;;;18.00;97.70;;;;;;5093668;28;20036;-79
2023/08/28 05:11:59;;;;;;;3.15;0.98;;;17.90;97.80;;;;;;5094306;28;20028;-83
2023/08/28 05:14:26;;;;;;;1.67;1.33;;;17.80;98.20;;;;;;5094187;28;20480;-81
2023/08/28 05:16:51;;;;;;;3.58;2.47;;;17.80;98.50;;;;;;5094659;28;20032;-83
2023/08/28 05:19:17;;;;;;;5.07;3.80;;;17.80;98.50;;;;;;5094406;28;20032;-83
2023/08/28 05:21:43;;;;;;;6.63;3.67;;;17.80;98.20;;;;;;5094866;28;20108;-82
2023/08/28 05:24:08;;;;;;;4.43;2.50;;;17.70;98.00;;;;;;5094457;28;20032;-83
2023/08/28 05:26:34;;;;;;;5.28;2.22;;;17.60;98.20;;;;;;5093690;28;20039;-84
2023/08/28 05:28:59;;;;;;;2.13;0.80;;;17.60;98.60;;;;;;5092850;28;20047;-83
2023/08/28 05:31:25;;;;;;;3.08;0.90;;;17.60;98.90;;;;;;5093682;28;20042;-83
2023/08/28 05:33:51;;;;;;;2.65;1.30;;;17.60;99.20;;;;;;5076144;28;20032;-84
2023/08/28 05:36:16;;;;;;;2.00;1.27;;;17.60;99.40;;;;;;5094424;28;20456;-84
2023/08/28 05:38:42;;;;;;;5.05;2.65;;;17.70;99.70;;;;;;5092869;28;20035;-84
2023/08/28 05:41:07;;;;;;;4.40;2.47;;;17.80;99.70;;;;;;5092518;28;20039;-84
2023/08/28 05:43:33;;;;;;;1.90;1.25;;;17.70;99.20;;;;;;5093153;28;20488;-83
2023/08/28 05:45:59;;;;;;;2.42;1.15;;;17.60;99.60;;;;;;5093533;28;20030;-84
2023/08/28 05:48:25;;;;;;;3.00;1.88;;;17.70;99.80;;;;;;5093759;28;20468;-84
2023/08/28 05:50:51;;;;;;;4.72;3.83;;;17.80;99.80;;;;;;5092779;28;20030;-83
2023/08/28 05:53:17;;;;;;;2.45;1.05;;;17.80;99.40;;;;;;5093214;28;20024;-84
2023/08/28 05:55:42;;;;;;;7.93;3.60;;;17.90;99.30;;;;;;5093992;28;20400;-81
2023/08/28 05:58:08;;;;;;;4.35;3.15;;;17.90;99.30;;;;;;5094786;28;20457;-76
2023/08/28 06:00:34;;;;;;;3.58;1.00;;;17.90;99.10;;;;;;5092418;28;20507;-76
2023/08/28 06:02:59;;;;;;;4.07;0.60;;;18.10;99.90;;;;;;5092699;28;20385;-77
2023/08/28 06:05:25;;;;;;;2.22;1.48;;;18.50;99.90;;;;;;5092628;28;20028;-75
2023/08/28 06:07:50;;;;;;;4.50;3.20;;;18.90;99.10;;;;;;5093172;28;20043;-82
2023/08/28 06:10:19;;;;;;;6.45;2.42;;;19.10;98.50;;;;;;5093834;28;20074;-82
2023/08/28 06:12:48;;;;;;;3.83;2.30;;;19.10;98.00;;;;;;5094059;28;20111;-83
2023/08/28 06:15:18;;;;;;;4.70;2.67;;;19.10;97.90;;;;;;5093729;28;20119;-81
2023/08/28 06:17:45;;;;;;;2.05;1.83;;;19.00;97.80;;;;;;5094201;28;20028;-82
2023/08/28 06:20:11;;;;;;;2.80;1.85;;;19.00;98.00;;;;;;5092479;28;20043;-82
2023/08/28 06:22:37;;;;;;;5.80;2.17;;;19.00;98.10;;;;;;5093560;28;20070;-83
2023/08/28 06:25:04;;;;;;;3.95;2.65;;;19.10;98.20;;;;;;5094304;28;20032;-82
2023/08/28 06:27:30;;;;;;;7.18;3.33;;;19.10;98.00;;;;;;5093189;28;20094;-82
2023/08/28 06:29:56;;;;;;;3.65;2.42;;;19.10;97.90;;;;;;5093718;28;20032;-82
2023/08/28 06:32:21;;;;;;;3.42;2.53;;;19.10;97.60;;;;;;5093723;28;20062;-83
2023/08/28 06:34:47;;;;;;;3.15;1.60;;;19.10;97.60;;;;;;5093596;28;20027;-83
2023/08/28 06:37:12;;;;;;;2.10;1.17;;;19.10;97.70;;;;;;5092485;28;20024;-82
2023/08/28 06:39:38;;;;;;;4.80;1.92;;;19.20;97.90;;;;;;5093266;28;20032;-81
2023/08/28 06:42:04;;;;;;;5.85;2.85;;;19.30;97.60;;;;;;5094169;28;20035;-82
2023/08/28 06:44:30;;;;;;;5.72;1.70;;;19.20;97.50;;;;;;5092549;28;20032;-81
2023/08/28 06:46:55;;;;;;;3.42;1.92;;;19.20;97.60;;;;;;5093482;28;20039;-82
2023/08/28 06:49:21;;;;;;;2.50;1.55;;;19.30;97.50;;;;;;5093865;28;20042;-82
2023/08/28 06:51:47;;;;;;;3.53;1.63;;;19.30;97.60;;;;;;5093973;28;20068;-82
2023/08/28 06:54:12;;;;;;;3.50;2.90;;;19.40;97.60;;;;;;5094162;28;20373;-81
2023/08/28 06:56:38;;;;;;;4.10;3.60;;;19.40;97.60;;;;;;5092629;28;20108;-81
2023/08/28 06:59:03;;;;;;;2.75;2.40;;;19.40;97.30;;;;;;5093471;28;20080;-82
2023/08/28 07:01:29;;;;;;;3.25;2.42;;;19.50;97.30;;;;;;5092160;28;20028;-84
2023/08/28 07:03:55;;;;;;;3.78;2.10;;;19.50;97.40;;;;;;5093490;28;20158;-83
2023/08/28 07:06:20;;;;;;;3.72;2.20;;;19.50;97.30;;;;;;5093664;28;20396;-85
2023/08/28 07:08:46;;;;;;;6.60;2.88;;;19.60;97.20;;;;;;5093204;28;20380;-83
2023/08/28 07:11:12;;;;;;;7.00;4.68;;;19.70;97.20;;;;;;5093586;28;20115;-83
2023/08/28 07:13:37;;;;;;;7.68;4.25;;;19.80;97.40;;;;;;5091976;28;20031;-83
2023/08/28 07:16:03;;;;;;;7.00;3.50;;;19.80;97.40;;;;;;5091804;28;20031;-84
2023/08/28 07:18:29;;;;;;;6.38;2.67;;;19.80;97.20;;;;;;5091840;28;20115;-83
2023/08/28 07:20:55;;;;;;;5.05;3.22;;;19.90;97.10;;;;;;5095191;28;20415;-84
2023/08/28 07:23:22;;;;;;;6.40;4.07;;;19.90;97.10;;;;;;5097362;28;20032;-82
2023/08/28 07:25:48;;;;;;;6.75;1.63;;;19.80;96.80;;;;;;5097077;28;20111;-81
2023/08/28 07:28:14;;;;;;;2.92;1.58;;;19.80;96.90;;;;;;5096846;28;20138;-81
2023/08/28 07:30:41;;;;;;;4.82;2.13;;;19.90;97.20;;;;;;5096969;28;20028;-79
2023/08/28 07:33:07;;;;;;;4.22;2.35;;;19.90;97.20;;;;;;5096688;28;20457;-80
2023/08/28 07:35:36;;;;;;;4.97;3.35;;;19.90;97.10;;;;;;5096923;28;20093;-81
2023/08/28 07:38:06;;;;;;;5.05;3.08;;;19.90;97.20;;;;;;5097077;28;20106;-82
2023/08/28 07:40:32;;;;;;;4.32;1.92;;;19.90;97.20;;;;;;5096933;28;20028;-82
2023/08/28 07:42:59;;;;;;;4.32;2.28;;;20.00;97.30;;;;;;5096582;28;20039;-82
2023/08/28 07:45:25;;;;;;;6.93;3.35;;;20.00;97.20;;;;;;5096842;28;20060;-83
2023/08/28 07:47:51;;;;;;;4.35;1.83;;;20.00;97.10;;;;;;5096280;28;20096;-82
2023/08/28 07:50:17;;;;;;;3.55;2.55;;;20.00;97.10;;;;;;5094994;28;20487;-83
2023/08/28 07:52:42;;;;;;;3.10;2.80;;;20.10;97.20;;;;;;5096355;28;20354;-82
2023/08/28 07:55:09;;;;;;;4.72;3.20;;;20.00;97.40;;;;;;5096672;28;20528;-82
2023/08/28 07:57:34;;;;;;;4.13;3.30;;;20.10;97.20;;;;;;5096095;28;20043;-80
2023/08/28 08:00:05;;;;;;;4.70;2.92;;;20.20;97.10;;;;;;5096472;28;20380;-82
2023/08/28 08:02:32;;;;;;;3.05;2.75;;;20.30;97.00;;;;;;5094902;28;20028;-80
2023/08/28 08:04:57;;;;;;;3.53;3.08;;;20.40;97.00;;;;;;5095228;28;20072;-79
2023/08/28 08:07:23;;;;;;;4.20;2.70;;;20.40;96.70;;;;;;5096026;28;20024;-80
2023/08/28 08:09:48;;;;;;;6.13;3.20;;;20.50;96.70;;;;;;5097128;28;20078;-80
2023/08/28 08:12:14;;;;;;;3.03;2.70;;;20.60;96.70;;;;;;5096545;28;20038;-80
2023/08/28 08:14:40;;;;;;;7.90;3.90;;;20.60;96.60;;;;;;5094581;28;20024;-80
2023/08/28 08:17:05;;;;;;;5.70;3.38;;;20.60;96.50;;;;;;5095886;28;20484;-80
2023/08/28 08:19:31;;;;;;;5.38;3.33;;;20.60;96.50;;;;;;5095772;28;20453;-79
2023/08/28 08:21:58;;;;;;;5.13;3.53;;;20.70;96.50;;;;;;5094993;28;20036;-80
2023/08/28 08:24:24;;;;;;;6.47;3.55;;;20.80;96.30;;;;;;5095836;28;20058;-81
2023/08/28 08:26:49;;;;;;;6.13;4.20;;;20.90;96.30;;;;;;5095096;28;20055;-81
2023/08/28 08:29:15;;;;;;;3.95;2.58;;;20.90;96.00;;;;;;5094346;28;20052;-81
2023/08/28 08:31:40;;;;;;;2.58;2.38;;;20.70;96.10;;;;;;5093381;28;20035;-82
2023/08/28 08:34:06;;;;;;;4.22;2.42;;;20.60;96.40;;;;;;5095405;28;20039;-79
2023/08/28 08:36:32;;;;;;;7.03;3.20;;;20.60;96.40;;;;;;5095585;28;20417;-81
2023/08/28 08:38:58;;;;;;;5.20;3.08;;;20.70;96.50;;;;;;5095160;28;20032;-81
2023/08/28 08:41:24;;;;;;;3.10;2.15;;;20.90;96.60;;;;;;5095052;28;20032;-81
2023/08/28 08:43:50;;;;;;;4.70;2.42;;;20.90;96.40;;;;;;5095170;28;20028;-82
2023/08/28 08:46:17;;;;;;;4.40;2.63;;;21.00;96.40;;;;;;5095433;28;20498;-83
2023/08/28 08:48:45;;;;;;;8.70;3.92;;;21.20;96.60;;;;;;5093595;28;20036;-78
2023/08/28 08:51:13;;;;;;;5.25;3.50;;;21.20;96.30;;;;;;5094204;28;20043;-80
2023/08/28 08:53:49;;;;;;;3.45;2.00;;;21.30;96.10;;;;;;5078129;28;20094;-81
2023/08/28 08:56:19;;;;;;;4.82;3.15;;;21.40;96.20;;;;;;5097705;28;20028;-80
2023/08/28 08:58:47;;;;;;;4.97;2.53;;;21.60;96.20;;;;;;5098686;28;20028;-79
2023/08/28 09:01:13;;;;;;;4.82;2.33;;;21.60;95.70;;;;;;5096553;28;20050;-80
2023/08/28 09:03:39;;;;;;;3.22;1.25;;;21.60;95.40;;;;;;5097593;28;20457;-80
2023/08/28 09:06:06;;;;;;;5.15;0.98;;;21.60;95.30;;;;;;5098492;28;20035;-80
2023/08/28 09:08:36;;;;;;;4.07;0.70;;;21.50;95.40;;;;;;5094627;28;20384;-81
2023/08/28 09:11:04;;;;;;;2.45;0.65;;;21.50;95.50;;;;;;5093895;28;20054;-81
2023/08/28 09:13:30;;;;;;;2.90;0.70;;;21.40;95.10;;;;;;5093709;28;20032;-79
2023/08/28 09:15:56;;;;;;;1.95;0.50;;;21.30;95.40;;;;;;5095325;28;20123;-76
2023/08/28 09:18:25;;;;;;;4.95;0.80;;;21.30;95.40;;;;;;5093943;28;20118;-78
2023/08/28 09:21:08;;;;;;;3.47;0.85;;;21.30;95.30;;;;;;5093688;28;20032;-79
2023/08/28 09:23:35;;;;;;;3.70;0.90;;;21.40;95.20;;;;;;5095035;28;20111;-78
2023/08/28 09:26:02;;;;;;;2.92;0.60;;;21.50;94.30;;;;;;5095144;28;20024;-81
2023/08/28 09:28:28;;;;;;;3.90;0.60;;;21.80;93.90;;;;;;5094684;28;20422;-81
2023/08/28 09:30:54;;;;;;;3.15;0.60;;;21.90;93.50;;;;;;5093339;28;20024;-81
2023/08/28 09:33:20;;;;;;;2.00;0.60;;;22.00;93.20;;;;;;5093207;28;20028;-77
2023/08/28 09:35:46;;;;;;;2.58;0.68;;;22.20;92.40;;;;;;5093178;28;20078;-77
2023/08/28 09:38:12;;;;;;;3.90;0.60;;;22.40;92.30;;;;;;5093669;28;20109;-78
2023/08/28 09:40:40;;;;;;;2.85;1.10;;;22.50;92.50;;;;;;5094961;28;20110;-78
2023/08/28 09:43:13;;;;;;;2.05;0.55;;;22.60;91.30;;;;;;5094374;28;20020;-77
2023/08/28 09:45:40;;;;;;;1.17;0.20;;;22.50;90.70;;;;;;5094896;28;20031;-80
2023/08/28 09:48:07;;;;;;;1.65;0.30;;;22.50;89.60;;;;;;5094114;28;20032;-73
2023/08/28 09:50:37;;;;;;;4.13;0.40;;;22.50;90.00;;;;;;5109450;28;20060;-74
2023/08/28 09:53:11;;;;;;;1.27;0.30;;;22.60;90.30;;;;;;5093761;28;20032;-75
2023/08/28 09:55:38;;;;;;;0.90;0.30;;;22.80;90.20;;;;;;5094256;28;20039;-74
2023/08/28 09:58:11;;;;;;;2.00;0.30;;;23.00;89.80;;;;;;5093123;28;20491;-76
2023/08/28 10:00:38;;;;;;;;;;;23.20;88.70;;;;;;5094186;28;20016;-75
2023/08/28 10:03:04;;;;;;;2.42;0.20;;;23.30;88.30;;;;;;5093539;28;19904;-75
2023/08/28 10:05:32;;;;;;;0.77;0.20;;;23.50;87.80;;;;;;5093544;28;20028;-75
2023/08/28 10:08:02;;;;;;;2.25;0.40;;;23.40;86.40;;;;;;5093688;28;20028;-74
2023/08/28 10:10:29;;;;;;;0.70;0.20;;;23.40;88.20;;;;;;5092219;28;20042;-74
2023/08/28 10:12:58;;;;;;;3.00;0.20;;;23.20;87.80;;;;;;5093773;28;20040;-75
2023/08/28 10:15:24;;;;;;;1.10;0.20;;;23.00;88.10;;;;;;5092375;28;20484;-79
2023/08/28 10:17:51;;;;;;;1.25;0.60;;;22.80;88.60;;;;;;5094257;28;20036;-80
2023/08/28 10:20:21;;;;;;;2.35;0.50;;;22.70;89.00;;;;;;5093693;28;20032;-82
2023/08/28 10:22:47;;;;;;;1.55;0.40;;;22.70;89.60;;;;;;5094111;28;20016;-79
2023/08/28 10:25:16;;;;;;;0.93;0.20;;;22.50;89.40;;;;;;5094681;28;20036;-80
2023/08/28 10:27:43;;;;;;;1.63;0.30;;;22.50;89.80;;;;;;5093453;28;20131;-80
2023/08/28 10:30:11;;;;;;;1.17;0.22;;;22.60;87.80;;;;;;5092777;28;20111;-79
2023/08/28 10:32:37;;;;;;;0.98;0.40;;;22.80;86.90;;;;;;5109518;28;20040;-79
2023/08/28 10:35:04;;;;;;;1.90;0.57;;;22.90;86.40;;;;;;5094292;28;20035;-80
2023/08/28 10:37:31;;;;;;;1.08;0.30;;;23.10;86.70;;;;;;5094153;28;20028;-81
2023/08/28 10:39:57;;;;;;;1.77;0.28;;;23.10;86.40;;;;;;5093725;28;20055;-80
2023/08/28 10:42:26;;;;;;;1.20;0.22;;;23.20;86.40;;;;;;5093682;28;20055;-79
2023/08/28 10:44:52;;;;;;;0.85;0.40;;;23.20;85.60;;;;;;5092484;28;20028;-80
2023/08/28 10:47:19;;;;;;;1.05;0.20;;;23.20;84.20;;;;;;5093677;28;20107;-82
2023/08/28 10:49:45;;;;;;;1.58;0.20;;;23.30;83.90;;;;;;5092933;28;20036;-81
2023/08/28 10:52:11;;;;;;;1.00;0.20;;;23.40;84.20;;;;;;5093833;28;20062;-82
2023/08/28 10:54:38;;;;;;;0.93;0.30;;;23.50;85.00;;;;;;5094650;28;20055;-81
2023/08/28 10:57:11;;;;;;;0.95;0.15;;;23.50;85.40;;;;;;5097639;28;20035;-81
2023/08/28 10:59:44;;;;;;;1.60;0.22;;;23.60;83.20;;;;;;5097331;28;20376;-82
2023/08/28 11:02:10;;;;;;;0.95;0.17;;;23.60;81.40;;;;;;5097515;28;20054;-81
2023/08/28 11:04:38;;;;;;;3.05;0.50;;;23.50;81.60;;;;;;5096127;28;20028;-84
2023/08/28 11:07:04;;;;;;;2.45;0.15;;;23.50;83.30;;;;;;5079178;28;20028;-81
2023/08/28 11:09:32;;;;;;;1.40;0.20;;;23.40;82.50;;;;;;5096137;28;20032;-82
2023/08/28 11:11:57;;;;;;;0.55;0.10;;;23.20;84.00;;;;;;5097539;28;20059;-80
2023/08/28 11:14:55;;;;;;;0.77;0.20;;;23.30;83.30;;;;;;5097226;28;20452;-81
2023/08/28 11:17:22;;;;;;;2.47;0.20;;;23.40;81.90;;;;;;5097040;28;20024;-81
2023/08/28 11:19:53;;;;;;;0.80;0.20;;;23.30;81.20;;;;;;5097500;28;20028;-81
2023/08/28 11:22:33;;;;;;;1.70;0.20;;;23.10;81.80;;;;;;5095986;28;20601;-81
2023/08/28 11:25:00;;;;;;;1.23;0.20;;;23.00;79.50;;;;;;5097503;28;20020;-81
2023/08/28 11:27:53;;;;;;;1.20;0.20;;;22.90;81.10;;;;;;5096882;28;20020;-80
2023/08/28 11:30:21;;;;;;;1.08;0.17;;;22.80;83.40;;;;;;5094527;28;20503;-81
2023/08/28 11:32:51;;;;;;;0.95;0.20;;;22.80;83.50;;;;;;5097015;28;20149;-80
2023/08/28 11:35:17;;;;;;;1.15;0.17;;;22.90;82.70;;;;;;5095676;28;20106;-80
2023/08/28 11:37:52;;;;;;;0.70;0.20;;;22.90;81.60;;;;;;5096161;28;20028;-80
2023/08/28 11:40:23;;;;;;;1.58;0.20;;;23.10;82.50;;;;;;5097247;28;20034;-80
2023/08/28 11:43:00;;;;;;;0.80;0.20;;;23.20;83.40;;;;;;5096986;28;20020;-80
2023/08/28 11:45:25;;;;;;;0.88;0.20;;;23.40;83.70;;;;;;5097111;28;20044;-80
2023/08/28 11:47:51;;;;;;;1.52;0.22;;;23.40;83.40;;;;;;5096403;28;20105;-81
2023/08/28 11:50:18;;;;;;;0.77;0.20;;;23.40;82.40;;;;;;5096614;28;20162;-78
2023/08/28 11:52:48;;;;;;;0.65;0.10;;;23.10;82.00;;;;;;5095462;28;20111;-80
2023/08/28 11:55:14;;;;;;;2.33;0.20;;;23.00;81.40;;;;;;5096951;28;20024;-80
2023/08/28 11:57:40;;;;;;;1.20;0.10;;;22.90;79.50;;;;;;5096662;28;20028;-79
2023/08/28 12:00:11;;;;;;;1.10;0.10;;;22.90;80.20;;;;;;5096464;28;20077;-81
2023/08/28 12:02:39;;;;;;;1.30;0.10;;;23.10;80.00;;;;;;5095152;28;20032;-80
2023/08/28 12:05:05;;;;;;;0.63;0.10;;;23.20;78.80;;;;;;5095781;28;20024;-81
2023/08/28 12:07:31;;;;;;;0.55;0.10;;;23.30;78.60;;;;;;5095502;28;20089;-82
2023/08/28 12:09:58;;;;;;;1.27;0.17;;;23.40;79.00;;;;;;5096765;28;20085;-81
2023/08/28 12:12:26;;;;;;;0.55;0.10;;;23.40;80.00;;;;;;5095437;28;20089;-80
2023/08/28 12:14:53;;;;;;;1.67;0.20;;;23.60;81.40;;;;;;5095116;28;20036;-81
2023/08/28 12:17:26;;;;;;;0.75;0.20;;;23.70;80.50;;;;;;5095058;28;20020;-80
2023/08/28 12:19:52;;;;;;;0.73;0.10;;;23.70;76.90;;;;;;5096332;28;20464;-81
2023/08/28 12:22:22;;;;;;;1.90;0.30;;;23.60;76.30;;;;;;5094812;28;20028;-81
2023/08/28 12:24:49;;;;;;;0.90;0.20;;;23.60;76.10;;;;;;5094643;28;20461;-82
2023/08/28 12:27:16;;;;;;;1.50;0.13;;;23.60;76.20;;;;;;5095966;28;20016;-79
2023/08/28 12:29:42;;;;;;;1.60;0.15;;;23.50;77.70;;;;;;5096699;28;20131;-79
2023/08/28 12:32:14;;;;;;;0.75;0.15;;;23.50;79.00;;;;;;5094684;28;20031;-80
2023/08/28 12:34:40;;;;;;;0.70;0.20;;;23.50;78.30;;;;;;5096255;28;20029;-81
2023/08/28 12:37:08;;;;;;;1.42;0.20;;;23.40;77.60;;;;;;5095915;28;20112;-81
2023/08/28 12:39:34;;;;;;;0.75;0.20;;;23.30;77.50;;;;;;5094656;28;20056;-81
2023/08/28 12:42:01;;;;;;;0.85;0.10;;;23.30;76.10;;;;;;5096351;28;20111;-79
2023/08/28 12:44:28;;;;;;;2.35;0.10;;;23.30;78.70;;;;;;5095583;28;20035;-82
2023/08/28 12:46:55;;;;;;;1.80;0.20;;;23.40;78.60;;;;;;5095709;28;20081;-82